createdAt,value
2018-07-19T00:00:31.093Z,0.00
2018-07-19T00:01:31.106Z,0.00
2018-07-19T00:03:24.064Z,0.00
2018-07-19T00:04:24.056Z,0.00
2018-07-19T00:06:16.983Z,0.00
2018-07-19T00:07:17.001Z,0.00
2018-07-19T00:09:09.962Z,0.00
2018-07-19T00:10:09.956Z,0.00
2018-07-19T00:12:02.886Z,0.00
2018-07-19T00:13:02.900Z,0.00
2018-07-19T00:14:55.855Z,0.00
2018-07-19T00:15:55.848Z,0.00
2018-07-19T00:17:48.800Z,0.00
2018-07-19T00:18:48.801Z,0.00
2018-07-19T00:20:41.732Z,0.00
2018-07-19T00:21:41.741Z,0.00
2018-07-19T00:23:34.698Z,0.00
2018-07-19T00:24:34.690Z,0.00
2018-07-19T00:26:27.623Z,0.00
2018-07-19T00:27:27.635Z,0.00
2018-07-19T00:29:20.598Z,0.00
2018-07-19T00:30:20.599Z,0.00
2018-07-19T00:32:13.528Z,0.00
2018-07-19T00:33:13.546Z,0.00
2018-07-19T00:35:06.500Z,0.00
2018-07-19T00:36:06.494Z,0.00
2018-07-19T00:37:59.452Z,0.00
2018-07-19T00:38:59.437Z,0.00
2018-07-19T00:40:52.382Z,0.00
2018-07-19T00:41:52.398Z,0.00
2018-07-19T00:43:45.349Z,0.00
2018-07-19T00:44:45.343Z,0.00
2018-07-19T00:46:38.279Z,0.00
2018-07-19T00:47:38.291Z,0.00
2018-07-19T00:49:31.250Z,0.00
2018-07-19T00:50:31.247Z,0.00
2018-07-19T00:52:24.171Z,0.00
2018-07-19T00:53:24.189Z,0.00
2018-07-19T00:55:17.139Z,0.00
2018-07-19T00:56:17.136Z,0.00
2018-07-19T00:58:10.087Z,0.00
2018-07-19T00:59:10.084Z,0.00
2018-07-19T01:01:03.020Z,0.00
2018-07-19T01:02:03.038Z,0.00
2018-07-19T01:03:55.989Z,0.00
2018-07-19T01:04:55.985Z,0.00
2018-07-19T01:06:48.919Z,0.00
2018-07-19T01:07:48.928Z,0.00
2018-07-19T01:09:41.879Z,0.00
2018-07-19T01:10:41.872Z,0.00
2018-07-19T01:12:34.804Z,0.00
2018-07-19T01:13:34.816Z,0.00
2018-07-19T01:15:27.768Z,0.00
2018-07-19T01:16:27.766Z,0.00
2018-07-19T01:18:20.720Z,0.00
2018-07-19T01:19:20.715Z,0.00
2018-07-19T01:21:13.643Z,0.00
2018-07-19T01:22:13.659Z,0.00
2018-07-19T01:24:06.616Z,0.00
2018-07-19T01:25:06.614Z,0.00
2018-07-19T01:26:59.542Z,0.00
2018-07-19T01:27:59.557Z,0.00
2018-07-19T01:29:52.510Z,0.00
2018-07-19T01:30:52.507Z,0.00
2018-07-19T01:32:45.440Z,0.00
2018-07-19T01:33:45.458Z,0.00
2018-07-19T01:35:38.406Z,0.00
2018-07-19T01:36:38.401Z,0.00
2018-07-19T01:38:31.349Z,0.00
2018-07-19T01:39:31.345Z,0.00
2018-07-19T01:41:24.297Z,0.00
2018-07-19T01:42:24.295Z,0.00
2018-07-19T01:44:17.248Z,0.00
2018-07-19T01:45:17.243Z,0.00
2018-07-19T01:47:10.180Z,0.00
2018-07-19T01:48:10.198Z,0.00
2018-07-19T01:50:03.155Z,0.00
2018-07-19T01:51:03.140Z,0.00
2018-07-19T01:52:56.078Z,0.00
2018-07-19T01:53:56.093Z,0.00
2018-07-19T02:23:33.872Z,0.00
2018-07-19T02:24:33.857Z,0.00
2018-07-19T02:26:26.797Z,0.00
2018-07-19T02:27:26.791Z,0.00
2018-07-19T02:29:19.737Z,0.00
2018-07-19T02:30:19.727Z,0.00
2018-07-19T02:32:12.665Z,0.00
2018-07-19T02:33:12.665Z,0.00
2018-07-19T02:35:05.608Z,0.00
2018-07-19T02:36:05.602Z,0.00
2018-07-19T02:37:58.525Z,0.00
2018-07-19T02:38:58.539Z,0.00
2018-07-19T02:40:51.484Z,0.00
2018-07-19T02:41:51.476Z,0.00
2018-07-19T02:43:44.405Z,0.00
2018-07-19T02:44:44.416Z,0.00
2018-07-19T02:46:37.361Z,0.00
2018-07-19T02:47:37.356Z,0.00
2018-07-19T02:49:30.311Z,0.00
2018-07-19T02:50:30.306Z,0.00
2018-07-19T02:52:23.233Z,0.00
2018-07-19T02:53:23.247Z,0.00
2018-07-19T02:55:16.204Z,0.00
2018-07-19T02:56:16.198Z,0.00
2018-07-19T02:58:09.130Z,0.00
2018-07-19T02:59:09.146Z,0.00
2018-07-19T03:01:02.106Z,0.00
2018-07-19T03:02:02.108Z,0.00
2018-07-19T03:03:55.026Z,0.00
2018-07-19T03:04:55.043Z,4.00
2018-07-19T03:06:47.990Z,0.00
2018-07-19T03:07:47.996Z,0.00
2018-07-19T03:09:40.945Z,4.00
2018-07-19T03:10:40.940Z,4.00
2018-07-19T03:12:33.890Z,4.00
2018-07-19T03:13:33.886Z,4.00
2018-07-19T03:15:26.839Z,8.00
2018-07-19T03:16:26.836Z,8.00
2018-07-19T03:18:19.769Z,12.00
2018-07-19T03:19:19.782Z,8.00
2018-07-19T03:21:12.747Z,12.00
2018-07-19T03:22:12.741Z,16.00
2018-07-19T03:24:05.671Z,20.00
2018-07-19T03:25:05.690Z,20.00
2018-07-19T03:26:58.631Z,24.00
2018-07-19T03:27:58.630Z,24.00
2018-07-19T03:29:51.587Z,32.00
2018-07-19T03:30:51.676Z,36.00
2018-07-19T03:32:44.558Z,44.00
2018-07-19T03:33:44.545Z,48.00
2018-07-19T03:35:37.494Z,52.00
2018-07-19T03:36:37.493Z,60.00
2018-07-19T03:38:30.421Z,64.00
2018-07-19T03:39:30.435Z,68.00
2018-07-19T03:41:23.391Z,76.00
2018-07-19T03:42:23.383Z,80.00
2018-07-19T03:44:16.319Z,88.00
2018-07-19T03:45:16.329Z,96.00
2018-07-19T03:47:09.278Z,108.00
2018-07-19T03:48:09.273Z,116.00
2018-07-19T03:50:02.226Z,128.00
2018-07-19T03:51:02.225Z,136.00
2018-07-19T03:52:55.175Z,156.00
2018-07-19T03:53:55.168Z,168.00
2018-07-19T03:55:48.124Z,184.00
2018-07-19T03:56:48.119Z,196.00
2018-07-19T03:58:41.074Z,216.00
2018-07-19T03:59:41.091Z,216.00
2018-07-19T04:01:34.045Z,228.00
2018-07-19T04:02:34.035Z,236.00
2018-07-19T04:04:26.970Z,260.00
2018-07-19T04:05:26.983Z,276.00
2018-07-19T04:07:19.951Z,308.00
2018-07-19T04:08:19.942Z,328.00
2018-07-19T04:10:12.881Z,356.00
2018-07-19T04:11:12.893Z,372.00
2018-07-19T04:13:05.841Z,392.00
2018-07-19T04:14:05.836Z,404.00
2018-07-19T04:15:58.785Z,436.00
2018-07-19T04:16:58.814Z,464.00
2018-07-19T04:18:51.724Z,500.00
2018-07-19T04:19:51.731Z,516.00
2018-07-19T04:21:44.691Z,572.00
2018-07-19T04:22:44.689Z,604.00
2018-07-19T04:24:37.613Z,652.00
2018-07-19T04:25:37.629Z,672.00
2018-07-19T04:27:30.594Z,684.00
2018-07-19T04:28:30.582Z,684.00
2018-07-19T04:30:23.513Z,684.00
2018-07-19T04:31:23.528Z,684.00
2018-07-19T04:33:16.477Z,704.00
2018-07-19T04:34:16.469Z,728.00
2018-07-19T04:36:09.424Z,808.00
2018-07-19T04:37:09.424Z,864.00
2018-07-19T04:39:02.351Z,936.00
2018-07-19T04:40:02.364Z,952.00
2018-07-19T04:41:55.324Z,944.00
2018-07-19T04:42:55.314Z,944.00
2018-07-19T04:44:48.245Z,1020.00
2018-07-19T04:45:48.257Z,1124.00
2018-07-19T04:47:41.218Z,1368.00
2018-07-19T04:48:41.208Z,1468.00
2018-07-19T04:50:34.141Z,1528.00
2018-07-19T04:51:34.159Z,1500.00
2018-07-19T04:53:27.119Z,1432.00
2018-07-19T04:54:27.115Z,1420.00
2018-07-19T04:56:20.072Z,1476.00
2018-07-19T04:57:20.067Z,1548.00
2018-07-19T04:59:12.996Z,1700.00
2018-07-19T05:00:13.011Z,1768.00
2018-07-19T05:02:06.023Z,1804.00
2018-07-19T05:03:05.957Z,1788.00
2018-07-19T05:04:58.884Z,1744.00
2018-07-19T05:05:58.898Z,1748.00
2018-07-19T05:07:51.856Z,1824.00
2018-07-19T05:08:51.852Z,1896.00
2018-07-19T05:10:44.787Z,2032.00
2018-07-19T05:11:44.835Z,2092.00
2018-07-19T05:13:37.752Z,2084.00
2018-07-19T05:14:37.749Z,2052.00
2018-07-19T05:16:30.696Z,1928.00
2018-07-19T05:17:30.697Z,1840.00
2018-07-19T05:19:23.628Z,1676.00
2018-07-19T05:20:23.642Z,1616.00
2018-07-19T05:22:16.597Z,1600.00
2018-07-19T05:23:16.643Z,1616.00
2018-07-19T05:25:09.527Z,1648.00
2018-07-19T05:26:09.544Z,1652.00
2018-07-19T05:28:02.497Z,1668.00
2018-07-19T05:29:02.493Z,1672.00
2018-07-19T05:30:55.420Z,1716.00
2018-07-19T05:31:55.440Z,1780.00
2018-07-19T05:33:48.395Z,2020.00
2018-07-19T05:34:48.390Z,2148.00
2018-07-19T05:36:41.356Z,2304.00
2018-07-19T05:37:41.348Z,2380.00
2018-07-19T05:39:34.286Z,4164.00
2018-07-19T05:40:34.318Z,5904.00
2018-07-19T05:42:27.339Z,2576.00
2018-07-19T05:43:27.265Z,2568.00
2018-07-19T05:45:20.242Z,2528.00
2018-07-19T05:46:20.214Z,2496.00
2018-07-19T05:48:13.178Z,2508.00
2018-07-19T05:49:13.165Z,2544.00
2018-07-19T05:51:06.123Z,2784.00
2018-07-19T05:52:06.140Z,2736.00
2018-07-19T05:53:59.091Z,2872.00
2018-07-19T05:54:59.091Z,5496.00
2018-07-19T05:56:52.046Z,7780.00
2018-07-19T05:57:52.045Z,8792.00
2018-07-19T05:59:44.981Z,3996.00
2018-07-19T06:00:45.001Z,4052.00
2018-07-19T06:02:37.953Z,4236.00
2018-07-19T06:03:37.948Z,4304.00
2018-07-19T06:05:30.890Z,4464.00
2018-07-19T06:06:30.908Z,4580.00
2018-07-19T06:08:23.861Z,5152.00
2018-07-19T06:09:23.854Z,9396.00
2018-07-19T06:11:16.788Z,5880.00
2018-07-19T06:12:16.809Z,5624.00
2018-07-19T06:14:09.765Z,5448.00
2018-07-19T06:15:09.762Z,5416.00
2018-07-19T06:17:02.721Z,5756.00
2018-07-19T06:18:02.724Z,5752.00
2018-07-19T06:19:55.660Z,20768.00
2018-07-19T06:20:55.677Z,21024.00
2018-07-19T06:22:48.632Z,21024.00
2018-07-19T06:23:48.632Z,20928.00
2018-07-19T06:25:41.570Z,19712.00
2018-07-19T06:26:41.589Z,18368.00
2018-07-19T06:28:34.538Z,14688.00
2018-07-19T06:29:34.541Z,9608.00
2018-07-19T06:31:27.518Z,8456.00
2018-07-19T06:32:27.505Z,11344.00
2018-07-19T06:34:20.465Z,14048.00
2018-07-19T06:35:20.458Z,13952.00
2018-07-19T06:37:13.420Z,10672.00
2018-07-19T06:38:13.421Z,8200.00
2018-07-19T06:40:06.358Z,9240.00
2018-07-19T06:41:06.447Z,10540.00
2018-07-19T06:42:59.339Z,15360.00
2018-07-19T06:43:59.340Z,16128.00
2018-07-19T06:45:52.279Z,14688.00
2018-07-19T06:46:52.297Z,14816.00
2018-07-19T06:48:45.263Z,15872.00
2018-07-19T06:49:45.262Z,16512.00
2018-07-19T06:51:38.203Z,16640.00
2018-07-19T06:52:38.223Z,14752.00
2018-07-19T06:54:31.190Z,10828.00
2018-07-19T06:55:31.196Z,7652.00
2018-07-19T06:57:24.182Z,7908.00
2018-07-19T06:58:24.159Z,15104.00
2018-07-19T07:00:17.104Z,8152.00
2018-07-19T07:01:17.121Z,12500.00
2018-07-19T07:03:10.077Z,8264.00
2018-07-19T07:04:10.086Z,8684.00
2018-07-19T07:06:03.031Z,7568.00
2018-07-19T07:07:03.049Z,7268.00
2018-07-19T07:08:56.040Z,6976.00
2018-07-19T07:09:56.023Z,6988.00
2018-07-19T07:11:48.967Z,7588.00
2018-07-19T07:12:48.987Z,7996.00
2018-07-19T07:14:41.945Z,8424.00
2018-07-19T07:15:41.947Z,8284.00
2018-07-19T07:17:34.904Z,7764.00
2018-07-19T07:18:34.910Z,7468.00
2018-07-19T07:20:27.845Z,7356.00
2018-07-19T07:21:27.871Z,7840.00
2018-07-19T07:23:20.834Z,7772.00
2018-07-19T07:24:20.833Z,7652.00
2018-07-19T07:26:13.770Z,7884.00
2018-07-19T07:27:13.789Z,7188.00
2018-07-19T07:29:06.750Z,7128.00
2018-07-19T07:30:06.753Z,6232.00
2018-07-19T07:31:59.691Z,5660.00
2018-07-19T07:32:59.711Z,5452.00
2018-07-19T07:34:52.673Z,5532.00
2018-07-19T07:35:52.674Z,5712.00
2018-07-19T07:37:45.636Z,5920.00
2018-07-19T07:38:45.652Z,6024.00
2018-07-19T07:40:38.575Z,6696.00
2018-07-19T07:41:38.595Z,6316.00
2018-07-19T07:43:31.558Z,10428.00
2018-07-19T07:44:31.558Z,10460.00
2018-07-19T07:46:24.495Z,6664.00
2018-07-19T07:47:24.516Z,6892.00
2018-07-19T07:49:17.482Z,8500.00
2018-07-19T07:50:17.480Z,8736.00
2018-07-19T07:52:10.426Z,11112.00
2018-07-19T07:53:10.447Z,10696.00
2018-07-19T07:55:03.417Z,10652.00
2018-07-19T07:56:03.418Z,7164.00
2018-07-19T07:57:56.376Z,6780.00
2018-07-19T07:58:56.380Z,6656.00
2018-07-19T08:00:49.319Z,6552.00
2018-07-19T08:01:49.336Z,6540.00
2018-07-19T08:03:42.299Z,6616.00
2018-07-19T08:04:42.296Z,9396.00
2018-07-19T08:06:35.240Z,9744.00
2018-07-19T08:07:35.259Z,9640.00
2018-07-19T08:09:28.221Z,9392.00
2018-07-19T08:10:28.225Z,9276.00
2018-07-19T08:12:21.174Z,9220.00
2018-07-19T08:13:21.195Z,9096.00
2018-07-19T08:15:14.158Z,9264.00
2018-07-19T08:16:14.161Z,9340.00
2018-07-19T08:18:07.125Z,9232.00
2018-07-19T08:19:07.122Z,9368.00
2018-07-19T08:21:00.070Z,9220.00
2018-07-19T08:22:00.089Z,9064.00
2018-07-19T08:23:53.064Z,6784.00
2018-07-19T08:24:53.051Z,8484.00
2018-07-19T08:26:45.998Z,8628.00
2018-07-19T08:27:46.020Z,8608.00
2018-07-19T08:29:38.984Z,7444.00
2018-07-19T08:30:38.989Z,6956.00
2018-07-19T08:32:31.930Z,6500.00
2018-07-19T08:33:31.949Z,6304.00
2018-07-19T08:35:24.915Z,6124.00
2018-07-19T08:36:24.916Z,6064.00
2018-07-19T08:38:17.884Z,6008.00
2018-07-19T08:39:17.877Z,5964.00
2018-07-19T08:41:10.825Z,5808.00
2018-07-19T08:42:10.847Z,5752.00
2018-07-19T08:44:03.804Z,5660.00
2018-07-19T08:45:03.807Z,5672.00
2018-07-19T08:46:56.748Z,5052.00
2018-07-19T08:47:56.765Z,4860.00
2018-07-19T08:49:49.734Z,4784.00
2018-07-19T08:50:49.736Z,4852.00
2018-07-19T08:52:42.683Z,5332.00
2018-07-19T08:53:42.698Z,5416.00
2018-07-19T08:55:35.671Z,5520.00
2018-07-19T08:56:35.664Z,5592.00
2018-07-19T08:58:28.638Z,5768.00
2018-07-19T08:59:28.619Z,5884.00
2018-07-19T09:01:21.567Z,6048.00
2018-07-19T09:02:21.611Z,5972.00
2018-07-19T09:04:14.544Z,5868.00
2018-07-19T09:05:14.549Z,5828.00
2018-07-19T09:07:07.490Z,5632.00
2018-07-19T09:08:07.507Z,5676.00
2018-07-19T09:10:00.467Z,5664.00
2018-07-19T09:11:00.468Z,5624.00
2018-07-19T09:12:53.409Z,5508.00
2018-07-19T09:13:53.429Z,5424.00
2018-07-19T09:15:46.397Z,5324.00
2018-07-19T09:16:46.397Z,5260.00
2018-07-19T09:18:39.364Z,5184.00
2018-07-19T09:19:39.585Z,5140.00
2018-07-19T09:21:32.305Z,5012.00
2018-07-19T09:22:32.329Z,4984.00
2018-07-19T09:24:25.290Z,4932.00
2018-07-19T09:25:25.290Z,4916.00
2018-07-19T09:27:18.233Z,4844.00
2018-07-19T09:28:18.250Z,4756.00
2018-07-19T09:30:11.207Z,4624.00
2018-07-19T09:31:11.210Z,4576.00
2018-07-19T09:33:04.151Z,4428.00
2018-07-19T09:34:04.170Z,4372.00
2018-07-19T09:35:57.133Z,4352.00
2018-07-19T09:36:57.136Z,4356.00
2018-07-19T09:38:50.096Z,4392.00
2018-07-19T09:39:50.127Z,4380.00
2018-07-19T09:41:43.062Z,4356.00
2018-07-19T09:42:43.055Z,4360.00
2018-07-19T09:44:36.033Z,4376.00
2018-07-19T09:45:36.016Z,4364.00
2018-07-19T09:47:28.957Z,4320.00
2018-07-19T09:48:28.979Z,4316.00
2018-07-19T09:50:21.931Z,4372.00
2018-07-19T09:51:21.933Z,4400.00
2018-07-19T09:53:14.880Z,4460.00
2018-07-19T09:54:14.898Z,4520.00
2018-07-19T09:56:07.856Z,4556.00
2018-07-19T09:57:07.862Z,4608.00
2018-07-19T09:59:00.826Z,4684.00
2018-07-19T10:00:00.825Z,4656.00
2018-07-19T10:01:53.774Z,4600.00
2018-07-19T10:02:53.789Z,4616.00
2018-07-19T10:04:46.746Z,4604.00
2018-07-19T10:05:46.766Z,4604.00
2018-07-19T10:07:39.713Z,4624.00
2018-07-19T10:08:39.703Z,4648.00
2018-07-19T10:10:32.673Z,4680.00
2018-07-19T10:11:32.673Z,4684.00
2018-07-19T10:13:25.626Z,4504.00
2018-07-19T10:14:25.664Z,4428.00
2018-07-19T10:16:18.619Z,4444.00
2018-07-19T10:17:18.635Z,4484.00
2018-07-19T10:19:11.569Z,4524.00
2018-07-19T10:20:11.569Z,4472.00
2018-07-19T10:22:04.515Z,4436.00
2018-07-19T10:23:04.529Z,4408.00
2018-07-19T10:24:57.495Z,4384.00
2018-07-19T10:25:57.496Z,4372.00
2018-07-19T10:27:50.482Z,4516.00
2018-07-19T10:28:50.463Z,4612.00
2018-07-19T10:30:43.432Z,4796.00
2018-07-19T10:31:43.434Z,3936.00
2018-07-19T10:33:36.380Z,3900.00
2018-07-19T10:34:36.401Z,3828.00
2018-07-19T10:36:29.361Z,3700.00
2018-07-19T10:37:29.364Z,3692.00
2018-07-19T10:39:22.322Z,3696.00
2018-07-19T10:40:22.326Z,4616.00
2018-07-19T10:42:15.272Z,4820.00
2018-07-19T10:43:15.295Z,4988.00
2018-07-19T10:45:08.252Z,4964.00
2018-07-19T10:46:08.298Z,4792.00
2018-07-19T10:48:01.195Z,4688.00
2018-07-19T10:49:01.215Z,4100.00
2018-07-19T10:50:54.186Z,4832.00
2018-07-19T10:51:54.204Z,4960.00
2018-07-19T10:53:47.123Z,5120.00
2018-07-19T10:54:47.148Z,5256.00
2018-07-19T10:56:40.114Z,4952.00
2018-07-19T10:57:40.119Z,5568.00
2018-07-19T10:59:33.074Z,5100.00
2018-07-19T11:00:33.079Z,5032.00
2018-07-19T11:02:26.025Z,4856.00
2018-07-19T11:03:26.046Z,4760.00
2018-07-19T11:05:19.011Z,3468.00
2018-07-19T11:06:19.013Z,3404.00
2018-07-19T11:08:11.954Z,3276.00
2018-07-19T11:09:11.974Z,3844.00
2018-07-19T11:11:04.940Z,4440.00
2018-07-19T11:12:04.945Z,4492.00
2018-07-19T11:13:57.887Z,4464.00
2018-07-19T11:14:57.905Z,4140.00
2018-07-19T11:16:50.869Z,4552.00
2018-07-19T11:17:50.872Z,4576.00
2018-07-19T11:19:43.833Z,4720.00
2018-07-19T11:20:43.842Z,4900.00
2018-07-19T11:22:36.836Z,5024.00
2018-07-19T11:23:36.801Z,4432.00
2018-07-19T11:25:29.759Z,4172.00
2018-07-19T11:26:29.763Z,4144.00
2018-07-19T11:28:22.717Z,4044.00
2018-07-19T11:29:22.733Z,3968.00
2018-07-19T11:31:15.703Z,3792.00
2018-07-19T11:32:15.705Z,3652.00
2018-07-19T11:34:08.647Z,3376.00
2018-07-19T11:35:08.669Z,3304.00
2018-07-19T11:37:01.633Z,3240.00
2018-07-19T11:38:01.635Z,3236.00
2018-07-19T11:39:54.608Z,3328.00
2018-07-19T11:40:54.599Z,3516.00
2018-07-19T11:42:47.558Z,4600.00
2018-07-19T11:43:47.577Z,4080.00
2018-07-19T11:45:40.539Z,5236.00
2018-07-19T11:46:40.543Z,5244.00
2018-07-19T11:48:33.485Z,4852.00
2018-07-19T11:49:33.517Z,4700.00
2018-07-19T11:51:26.470Z,4472.00
2018-07-19T11:52:26.472Z,4244.00
2018-07-19T11:54:19.411Z,2948.00
2018-07-19T11:55:19.431Z,2792.00
2018-07-19T11:57:12.400Z,2756.00
2018-07-19T11:58:12.402Z,2844.00
2018-07-19T12:00:05.364Z,3116.00
2018-07-19T12:01:05.365Z,3200.00
2018-07-19T12:02:58.321Z,3276.00
2018-07-19T12:03:58.339Z,3948.00
2018-07-19T12:05:51.311Z,3264.00
2018-07-19T12:06:51.308Z,3524.00
2018-07-19T12:08:44.244Z,4380.00
2018-07-19T12:09:44.267Z,4520.00
2018-07-19T12:11:37.236Z,4328.00
2018-07-19T12:12:37.235Z,4328.00
2018-07-19T12:14:30.173Z,4352.00
2018-07-19T12:15:30.199Z,3476.00
2018-07-19T12:17:23.180Z,3532.00
2018-07-19T12:18:23.169Z,4084.00
2018-07-19T12:20:16.131Z,4160.00
2018-07-19T12:21:16.133Z,4104.00
2018-07-19T12:23:09.082Z,4024.00
2018-07-19T12:24:09.100Z,3964.00
2018-07-19T12:26:02.092Z,3848.00
2018-07-19T12:27:02.093Z,3820.00
2018-07-19T12:28:55.037Z,3912.00
2018-07-19T12:29:55.058Z,3936.00
2018-07-19T12:31:48.018Z,4004.00
2018-07-19T12:32:48.022Z,4084.00
2018-07-19T12:34:40.963Z,4160.00
2018-07-19T12:35:40.987Z,4172.00
2018-07-19T12:37:33.964Z,4264.00
2018-07-19T12:38:33.962Z,4356.00
2018-07-19T12:40:26.928Z,4612.00
2018-07-19T12:41:26.928Z,4696.00
2018-07-19T12:43:19.871Z,4740.00
2018-07-19T12:44:19.887Z,4736.00
2018-07-19T12:46:12.857Z,4728.00
2018-07-19T12:47:12.858Z,4656.00
2018-07-19T12:49:05.813Z,4608.00
2018-07-19T12:50:05.836Z,4600.00
2018-07-19T12:51:58.836Z,4652.00
2018-07-19T12:52:58.795Z,4684.00
2018-07-19T12:54:51.743Z,4660.00
2018-07-19T12:55:51.766Z,4736.00
2018-07-19T12:57:44.737Z,4868.00
2018-07-19T12:58:44.741Z,4932.00
2018-07-19T13:00:37.717Z,4864.00
2018-07-19T13:01:37.719Z,4836.00
2018-07-19T13:03:30.666Z,4732.00
2018-07-19T13:04:30.687Z,4620.00
2018-07-19T13:06:23.675Z,4456.00
2018-07-19T13:07:23.672Z,4444.00
2018-07-19T13:09:16.608Z,4340.00
2018-07-19T13:10:16.633Z,3736.00
2018-07-19T13:12:09.595Z,4148.00
2018-07-19T13:13:09.598Z,4192.00
2018-07-19T13:15:02.574Z,4192.00
2018-07-19T13:16:02.567Z,4228.00
2018-07-19T13:17:55.530Z,4268.00
2018-07-19T13:18:55.539Z,4268.00
2018-07-19T13:20:48.523Z,3256.00
2018-07-19T13:21:48.539Z,3092.00
2018-07-19T13:23:41.476Z,2984.00
2018-07-19T13:24:41.498Z,3476.00
2018-07-19T13:26:34.464Z,3832.00
2018-07-19T13:27:34.469Z,3816.00
2018-07-19T13:29:27.417Z,3772.00
2018-07-19T13:30:27.434Z,3692.00
2018-07-19T13:32:20.410Z,3728.00
2018-07-19T13:33:20.412Z,3724.00
2018-07-19T13:35:13.356Z,3848.00
2018-07-19T13:36:13.380Z,3864.00
2018-07-19T13:38:06.355Z,3936.00
2018-07-19T13:39:06.349Z,3944.00
2018-07-19T13:40:59.309Z,3708.00
2018-07-19T13:41:59.314Z,3644.00
2018-07-19T13:43:52.257Z,3776.00
2018-07-19T13:44:52.280Z,3736.00
2018-07-19T13:46:45.261Z,3900.00
2018-07-19T13:47:45.255Z,3964.00
2018-07-19T13:49:38.208Z,4180.00
2018-07-19T13:50:38.228Z,3996.00
2018-07-19T13:52:31.193Z,3500.00
2018-07-19T13:53:31.194Z,3880.00
2018-07-19T13:55:24.140Z,4400.00
2018-07-19T13:56:24.163Z,4412.00
2018-07-19T13:58:17.118Z,4364.00
2018-07-19T13:59:17.127Z,4424.00
2018-07-19T14:01:10.093Z,4428.00
2018-07-19T14:02:10.097Z,4404.00
2018-07-19T14:04:03.094Z,4292.00
2018-07-19T14:05:03.071Z,3892.00
2018-07-19T14:06:56.024Z,3564.00
2018-07-19T14:07:56.029Z,3768.00
2018-07-19T14:09:48.992Z,3384.00
2018-07-19T14:10:48.994Z,3456.00
2018-07-19T14:12:41.955Z,3932.00
2018-07-19T14:13:41.965Z,4120.00
2018-07-19T14:15:34.904Z,3884.00
2018-07-19T14:16:34.927Z,3884.00
2018-07-19T14:18:27.891Z,3828.00
2018-07-19T14:19:27.892Z,3716.00
2018-07-19T14:21:20.859Z,3696.00
2018-07-19T14:22:20.859Z,3708.00
2018-07-19T14:24:13.809Z,3724.00
2018-07-19T14:25:13.834Z,3800.00
2018-07-19T14:27:06.794Z,3864.00
2018-07-19T14:28:06.797Z,3844.00
2018-07-19T14:29:59.743Z,3784.00
2018-07-19T14:30:59.764Z,3704.00
2018-07-19T14:32:52.726Z,3732.00
2018-07-19T14:33:52.731Z,3724.00
2018-07-19T14:35:45.687Z,3700.00
2018-07-19T14:36:45.731Z,3664.00
2018-07-19T14:38:38.679Z,3720.00
2018-07-19T14:39:38.676Z,3816.00
2018-07-19T14:41:31.641Z,3820.00
2018-07-19T14:42:31.642Z,3780.00
2018-07-19T14:44:24.589Z,3720.00
2018-07-19T14:45:24.605Z,3656.00
2018-07-19T14:47:17.567Z,3420.00
2018-07-19T14:48:17.575Z,3400.00
2018-07-19T14:50:10.518Z,3280.00
2018-07-19T14:51:10.536Z,3252.00
2018-07-19T14:53:03.508Z,3256.00
2018-07-19T14:54:03.509Z,3224.00
2018-07-19T14:55:56.461Z,3268.00
2018-07-19T14:56:56.484Z,3296.00
2018-07-19T14:58:49.450Z,3196.00
2018-07-19T14:59:49.454Z,3100.00
2018-07-19T15:01:42.417Z,3016.00
2018-07-19T15:02:42.422Z,2952.00
2018-07-19T15:04:35.363Z,3020.00
2018-07-19T15:05:35.388Z,2908.00
2018-07-19T15:07:28.375Z,2976.00
2018-07-19T15:08:28.364Z,2912.00
2018-07-19T15:10:21.298Z,2872.00
2018-07-19T15:11:21.321Z,2956.00
2018-07-19T15:13:14.282Z,3168.00
2018-07-19T15:14:14.286Z,3272.00
2018-07-19T15:16:07.230Z,3484.00
2018-07-19T15:17:07.256Z,3580.00
2018-07-19T15:19:00.218Z,3584.00
2018-07-19T15:20:00.216Z,3484.00
2018-07-19T15:21:53.187Z,3420.00
2018-07-19T15:22:53.187Z,3504.00
2018-07-19T15:24:46.127Z,3584.00
2018-07-19T15:25:46.149Z,3556.00
2018-07-19T15:27:39.112Z,3480.00
2018-07-19T15:28:39.114Z,3400.00
2018-07-19T15:30:32.059Z,3280.00
2018-07-19T15:31:32.079Z,3288.00
2018-07-19T15:33:25.045Z,3236.00
2018-07-19T15:34:25.093Z,3088.00
2018-07-19T15:36:17.987Z,2616.00
2018-07-19T15:37:18.010Z,2464.00
2018-07-19T15:39:10.977Z,2200.00
2018-07-19T15:40:10.978Z,2160.00
2018-07-19T15:42:03.941Z,2040.00
2018-07-19T15:43:03.941Z,2052.00
2018-07-19T15:44:56.934Z,2112.00
2018-07-19T15:45:56.905Z,2160.00
2018-07-19T15:47:49.869Z,2244.00
2018-07-19T15:48:49.872Z,2280.00
2018-07-19T15:50:42.813Z,2152.00
2018-07-19T15:51:42.835Z,2096.00
2018-07-19T15:53:35.801Z,1816.00
2018-07-19T15:54:35.794Z,1700.00
2018-07-19T15:56:28.739Z,1680.00
2018-07-19T15:57:28.760Z,1784.00
2018-07-19T15:59:21.717Z,2056.00
2018-07-19T16:00:21.716Z,2012.00
2018-07-19T16:02:14.678Z,2120.00
2018-07-19T16:03:14.679Z,2100.00
2018-07-19T16:05:07.616Z,1968.00
2018-07-19T16:06:07.638Z,1964.00
2018-07-19T16:08:00.607Z,1856.00
2018-07-19T16:09:00.604Z,1932.00
2018-07-19T16:10:53.545Z,1992.00
2018-07-19T16:11:53.566Z,1868.00
2018-07-19T16:13:46.537Z,1868.00
2018-07-19T16:14:46.529Z,1876.00
2018-07-19T16:16:39.483Z,2056.00
2018-07-19T16:17:39.494Z,1932.00
2018-07-19T16:19:32.464Z,2080.00
2018-07-19T16:20:32.499Z,2056.00
2018-07-19T16:22:25.416Z,2112.00
2018-07-19T16:23:25.417Z,2140.00
2018-07-19T16:25:18.359Z,2128.00
2018-07-19T16:26:18.382Z,2104.00
2018-07-19T16:28:11.340Z,1996.00
2018-07-19T16:29:11.342Z,1932.00
2018-07-19T16:31:04.280Z,1856.00
2018-07-19T16:32:04.302Z,1960.00
2018-07-19T16:33:57.317Z,1940.00
2018-07-19T16:34:57.265Z,1964.00
2018-07-19T16:36:50.201Z,1884.00
2018-07-19T16:37:50.222Z,1832.00
2018-07-19T16:39:43.185Z,1836.00
2018-07-19T16:40:43.183Z,1816.00
2018-07-19T16:42:36.146Z,1864.00
2018-07-19T16:43:36.147Z,1916.00
2018-07-19T16:45:29.089Z,2076.00
2018-07-19T16:46:29.168Z,2064.00
2018-07-19T16:48:22.074Z,2120.00
2018-07-19T16:49:22.076Z,2096.00
2018-07-19T16:51:15.020Z,2040.00
2018-07-19T16:52:15.041Z,2052.00
2018-07-19T16:54:08.000Z,2140.00
2018-07-19T16:55:08.004Z,2260.00
2018-07-19T16:57:00.946Z,2376.00
2018-07-19T16:58:00.966Z,2428.00
2018-07-19T16:59:53.925Z,2512.00
2018-07-19T17:00:53.929Z,2552.00
2018-07-19T17:02:46.888Z,2616.00
2018-07-19T17:03:46.891Z,2640.00
2018-07-19T17:05:39.830Z,2672.00
2018-07-19T17:06:39.851Z,2676.00
2018-07-19T17:08:32.811Z,2684.00
2018-07-19T17:09:32.850Z,2676.00
2018-07-19T17:11:25.757Z,2652.00
2018-07-19T17:12:25.776Z,2640.00
2018-07-19T17:14:18.751Z,2588.00
2018-07-19T17:15:18.731Z,2560.00
2018-07-19T17:17:11.739Z,2488.00
2018-07-19T17:18:11.695Z,2444.00
2018-07-19T17:20:04.656Z,2360.00
2018-07-19T17:21:04.654Z,2308.00
2018-07-19T17:22:57.619Z,2200.00
2018-07-19T17:23:57.619Z,2148.00
2018-07-19T17:25:50.571Z,2036.00
2018-07-19T17:26:50.592Z,1980.00
2018-07-19T17:28:43.554Z,1884.00
2018-07-19T17:29:43.556Z,1832.00
2018-07-19T17:31:36.503Z,1744.00
2018-07-19T17:32:36.524Z,1704.00
2018-07-19T17:34:29.489Z,1628.00
2018-07-19T17:35:29.486Z,1588.00
2018-07-19T17:37:22.436Z,1520.00
2018-07-19T17:38:22.452Z,1492.00
2018-07-19T17:40:15.409Z,1432.00
2018-07-19T17:41:15.410Z,1404.00
2018-07-19T17:43:08.367Z,1356.00
2018-07-19T17:44:08.371Z,1336.00
2018-07-19T17:46:01.315Z,1296.00
2018-07-19T17:47:01.336Z,1288.00
2018-07-19T17:48:54.293Z,1264.00
2018-07-19T17:49:54.296Z,1252.00
2018-07-19T17:51:47.235Z,1244.00
2018-07-19T17:52:47.257Z,1232.00
2018-07-19T17:54:40.271Z,1208.00
2018-07-19T17:55:40.225Z,1196.00
2018-07-19T17:57:33.159Z,1180.00
2018-07-19T17:58:33.181Z,1168.00
2018-07-19T18:00:26.147Z,1156.00
2018-07-19T18:01:26.139Z,1148.00
2018-07-19T18:03:19.108Z,1136.00
2018-07-19T18:04:19.096Z,1128.00
2018-07-19T18:06:12.041Z,1112.00
2018-07-19T18:07:12.063Z,1104.00
2018-07-19T18:09:05.023Z,1080.00
2018-07-19T18:10:05.019Z,1068.00
2018-07-19T18:11:57.959Z,1040.00